sensor_id;sensor_type;location;lat;lon;timestamp;noise_LAeq;noise_LA_min;noise_LA_max;noise_LA01;noise_LA95
77133;Laerm;26708;50.304;19.028;2024-03-23T00:54:21;52.96;50.72;55.33;;
77133;Laerm;26708;50.304;19.028;2024-03-23T00:56:23;52.89;50.72;55.32;;
77133;Laerm;26708;50.304;19.028;2024-03-23T00:58:25;52.89;50.49;55.61;;
77133;Laerm;26708;50.304;19.028;2024-03-23T01:00:28;53.03;50.38;55.54;;
77133;Laerm;26708;50.304;19.028;2024-03-23T01:02:30;52.89;50.65;55.81;;
77133;Laerm;26708;50.304;19.028;2024-03-23T01:04:32;52.89;50.65;55.34;;
77133;Laerm;26708;50.304;19.028;2024-03-23T01:06:34;53.12;50.64;55.42;;
77133;Laerm;26708;50.304;19.028;2024-03-23T01:08:39;52.99;50.55;55.51;;
77133;Laerm;26708;50.304;19.028;2024-03-23T01:10:40;53.05;50.31;55.58;;
77133;Laerm;26708;50.304;19.028;2024-03-23T01:12:43;53.00;50.74;55.60;;
77133;Laerm;26708;50.304;19.028;2024-03-23T01:14:45;53.05;50.70;55.62;;
77133;Laerm;26708;50.304;19.028;2024-03-23T01:16:47;53.07;50.50;55.14;;
77133;Laerm;26708;50.304;19.028;2024-03-23T01:18:49;52.96;50.40;55.44;;
77133;Laerm;26708;50.304;19.028;2024-03-23T01:20:51;52.98;50.64;55.21;;
77133;Laerm;26708;50.304;19.028;2024-03-23T01:22:53;52.99;50.66;55.47;;
77133;Laerm;26708;50.304;19.028;2024-03-23T01:24:59;54.22;50.61;65.53;;
77133;Laerm;26708;50.304;19.028;2024-03-23T01:27:00;52.97;50.91;55.35;;
77133;Laerm;26708;50.304;19.028;2024-03-23T01:29:02;53.00;50.57;55.48;;
77133;Laerm;26708;50.304;19.028;2024-03-23T01:31:07;53.00;50.33;55.36;;
77133;Laerm;26708;50.304;19.028;2024-03-23T01:33:10;53.13;50.78;60.24;;
77133;Laerm;26708;50.304;19.028;2024-03-23T01:35:12;53.09;50.77;55.70;;
77133;Laerm;26708;50.304;19.028;2024-03-23T01:37:14;54.34;50.13;65.75;;
77133;Laerm;26708;50.304;19.028;2024-03-23T01:39:16;53.02;50.78;55.55;;
77133;Laerm;26708;50.304;19.028;2024-03-23T01:41:21;53.07;50.62;55.64;;
77133;Laerm;26708;50.304;19.028;2024-03-23T01:43:23;53.23;50.84;56.34;;
77133;Laerm;26708;50.304;19.028;2024-03-23T01:45:25;53.01;50.87;55.64;;
77133;Laerm;26708;50.304;19.028;2024-03-23T01:47:27;53.03;50.43;55.35;;
77133;Laerm;26708;50.304;19.028;2024-03-23T01:49:30;53.12;50.54;55.54;;
77133;Laerm;26708;50.304;19.028;2024-03-23T01:51:33;53.11;50.24;55.48;;
77133;Laerm;26708;50.304;19.028;2024-03-23T01:53:35;52.92;50.62;55.08;;
77133;Laerm;26708;50.304;19.028;2024-03-23T01:55:38;53.05;50.80;55.42;;
77133;Laerm;26708;50.304;19.028;2024-03-23T01:57:44;53.09;50.68;55.62;;
77133;Laerm;26708;50.304;19.028;2024-03-23T01:59:46;53.06;50.78;55.54;;
77133;Laerm;26708;50.304;19.028;2024-03-23T02:01:54;53.03;50.95;55.54;;
77133;Laerm;26708;50.304;19.028;2024-03-23T02:03:58;53.12;50.72;55.48;;
77133;Laerm;26708;50.304;19.028;2024-03-23T02:06:00;52.99;50.79;54.98;;
77133;Laerm;26708;50.304;19.028;2024-03-23T02:08:04;52.96;50.20;55.46;;
77133;Laerm;26708;50.304;19.028;2024-03-23T02:10:07;53.04;50.63;55.61;;
77133;Laerm;26708;50.304;19.028;2024-03-23T02:12:09;52.82;50.61;54.89;;
77133;Laerm;26708;50.304;19.028;2024-03-23T02:14:15;52.87;50.25;55.01;;
77133;Laerm;26708;50.304;19.028;2024-03-23T02:16:17;52.96;50.28;55.51;;
77133;Laerm;26708;50.304;19.028;2024-03-23T02:18:18;53.06;50.62;55.61;;
77133;Laerm;26708;50.304;19.028;2024-03-23T02:20:21;52.99;50.44;55.43;;
77133;Laerm;26708;50.304;19.028;2024-03-23T02:22:23;53.42;50.59;55.79;;
77133;Laerm;26708;50.304;19.028;2024-03-23T02:24:29;53.19;50.81;55.40;;
77133;Laerm;26708;50.304;19.028;2024-03-23T02:26:32;52.98;50.80;55.20;;
77133;Laerm;26708;50.304;19.028;2024-03-23T02:28:34;53.13;50.26;55.58;;
77133;Laerm;26708;50.304;19.028;2024-03-23T02:30:36;53.06;50.67;55.17;;
77133;Laerm;26708;50.304;19.028;2024-03-23T02:32:39;53.04;50.74;57.28;;
77133;Laerm;26708;50.304;19.028;2024-03-23T02:34:40;53.02;50.81;55.29;;
77133;Laerm;26708;50.304;19.028;2024-03-23T02:36:42;53.12;50.71;55.57;;
77133;Laerm;26708;50.304;19.028;2024-03-23T02:38:45;52.97;50.12;55.43;;
77133;Laerm;26708;50.304;19.028;2024-03-23T02:40:49;53.01;50.69;55.47;;
77133;Laerm;26708;50.304;19.028;2024-03-23T02:42:51;54.04;50.67;64.20;;
77133;Laerm;26708;50.304;19.028;2024-03-23T02:44:54;53.35;50.92;57.11;;
77133;Laerm;26708;50.304;19.028;2024-03-23T02:46:56;53.09;50.49;55.56;;
77133;Laerm;26708;50.304;19.028;2024-03-23T02:48:57;53.02;50.67;55.33;;
77133;Laerm;26708;50.304;19.028;2024-03-23T02:51:00;53.05;50.70;55.75;;
77133;Laerm;26708;50.304;19.028;2024-03-23T02:53:02;52.99;50.67;55.28;;
77133;Laerm;26708;50.304;19.028;2024-03-23T02:55:04;52.87;50.54;55.94;;
77133;Laerm;26708;50.304;19.028;2024-03-23T02:57:10;52.95;50.51;55.19;;
77133;Laerm;26708;50.304;19.028;2024-03-23T02:59:12;52.88;50.06;55.38;;
77133;Laerm;26708;50.304;19.028;2024-03-23T03:01:13;53.00;50.64;55.13;;
77133;Laerm;26708;50.304;19.028;2024-03-23T03:03:16;53.03;50.47;55.84;;
77133;Laerm;26708;50.304;19.028;2024-03-23T03:05:18;53.09;50.50;55.82;;
77133;Laerm;26708;50.304;19.028;2024-03-23T03:07:20;53.23;50.85;56.98;;
77133;Laerm;26708;50.304;19.028;2024-03-23T03:09:23;53.31;50.79;56.24;;
77133;Laerm;26708;50.304;19.028;2024-03-23T03:11:24;53.21;50.80;56.29;;
77133;Laerm;26708;50.304;19.028;2024-03-23T03:13:29;53.17;50.63;56.15;;
77133;Laerm;26708;50.304;19.028;2024-03-23T03:15:32;53.10;50.69;55.80;;
77133;Laerm;26708;50.304;19.028;2024-03-23T03:17:34;53.07;50.39;56.00;;
77133;Laerm;26708;50.304;19.028;2024-03-23T03:19:35;53.08;50.86;55.87;;
77133;Laerm;26708;50.304;19.028;2024-03-23T03:21:38;52.98;50.57;55.48;;
77133;Laerm;26708;50.304;19.028;2024-03-23T03:23:40;56.51;51.00;71.89;;
77133;Laerm;26708;50.304;19.028;2024-03-23T03:25:42;53.09;50.86;55.39;;
77133;Laerm;26708;50.304;19.028;2024-03-23T03:27:44;57.81;50.65;73.68;;
77133;Laerm;26708;50.304;19.028;2024-03-23T03:29:49;59.24;50.48;75.54;;
77133;Laerm;26708;50.304;19.028;2024-03-23T03:31:51;59.44;50.60;75.84;;
77133;Laerm;26708;50.304;19.028;2024-03-23T03:33:53;59.04;50.30;75.61;;
77133;Laerm;26708;50.304;19.028;2024-03-23T03:35:55;59.03;50.89;75.57;;
77133;Laerm;26708;50.304;19.028;2024-03-23T03:37:57;54.96;50.40;72.64;;
77133;Laerm;26708;50.304;19.028;2024-03-23T03:40:00;53.23;50.42;61.45;;
77133;Laerm;26708;50.304;19.028;2024-03-23T03:42:02;55.38;51.11;66.05;;
77133;Laerm;26708;50.304;19.028;2024-03-23T03:44:04;54.71;50.73;66.59;;
77133;Laerm;26708;50.304;19.028;2024-03-23T03:46:09;55.73;50.59;66.85;;
77133;Laerm;26708;50.304;19.028;2024-03-23T03:48:11;54.94;50.66;66.61;;
77133;Laerm;26708;50.304;19.028;2024-03-23T03:50:13;56.46;50.41;73.06;;
77133;Laerm;26708;50.304;19.028;2024-03-23T03:52:16;53.15;50.00;62.04;;
77133;Laerm;26708;50.304;19.028;2024-03-23T03:54:17;55.58;50.84;68.88;;
77133;Laerm;26708;50.304;19.028;2024-03-23T03:56:19;56.12;50.64;68.14;;
77133;Laerm;26708;50.304;19.028;2024-03-23T03:58:22;54.50;51.00;65.92;;
77133;Laerm;26708;50.304;19.028;2024-03-23T04:00:25;54.09;50.36;66.13;;
77133;Laerm;26708;50.304;19.028;2024-03-23T04:02:29;54.23;50.76;63.84;;
77133;Laerm;26708;50.304;19.028;2024-03-23T04:04:32;53.17;50.38;61.21;;
77133;Laerm;26708;50.304;19.028;2024-03-23T04:06:34;53.01;50.39;55.37;;
77133;Laerm;26708;50.304;19.028;2024-03-23T04:08:36;54.61;50.45;67.19;;
77133;Laerm;26708;50.304;19.028;2024-03-23T04:10:38;53.73;50.26;64.17;;
77133;Laerm;26708;50.304;19.028;2024-03-23T04:12:40;53.96;50.36;65.44;;
77133;Laerm;26708;50.304;19.028;2024-03-23T04:14:42;53.00;50.62;60.98;;
77133;Laerm;26708;50.304;19.028;2024-03-23T04:16:45;53.80;50.74;64.06;;
77133;Laerm;26708;50.304;19.028;2024-03-23T04:18:49;53.16;50.73;60.06;;
77133;Laerm;26708;50.304;19.028;2024-03-23T04:20:52;53.07;50.30;59.11;;
77133;Laerm;26708;50.304;19.028;2024-03-23T04:22:54;56.34;50.82;71.25;;
77133;Laerm;26708;50.304;19.028;2024-03-23T04:24:57;53.58;50.99;59.93;;
77133;Laerm;26708;50.304;19.028;2024-03-23T04:26:59;55.93;50.59;71.56;;
77133;Laerm;26708;50.304;19.028;2024-03-23T04:29:01;53.91;50.38;69.16;;
77133;Laerm;26708;50.304;19.028;2024-03-23T04:31:04;53.13;50.82;57.31;;
77133;Laerm;26708;50.304;19.028;2024-03-23T04:33:06;54.43;50.90;63.03;;
77133;Laerm;26708;50.304;19.028;2024-03-23T04:35:11;55.49;51.15;69.03;;
77133;Laerm;26708;50.304;19.028;2024-03-23T04:37:13;54.27;50.83;67.40;;
77133;Laerm;26708;50.304;19.028;2024-03-23T04:39:15;53.11;50.75;56.07;;
77133;Laerm;26708;50.304;19.028;2024-03-23T04:41:17;53.31;50.69;59.53;;
77133;Laerm;26708;50.304;19.028;2024-03-23T04:43:19;53.33;50.78;61.21;;
77133;Laerm;26708;50.304;19.028;2024-03-23T04:45:21;54.13;51.05;63.17;;
77133;Laerm;26708;50.304;19.028;2024-03-23T04:47:25;54.34;50.47;65.60;;
77133;Laerm;26708;50.304;19.028;2024-03-23T04:49:28;53.75;51.00;60.62;;
77133;Laerm;26708;50.304;19.028;2024-03-23T04:51:36;55.52;50.62;68.55;;
77133;Laerm;26708;50.304;19.028;2024-03-23T04:53:39;53.17;50.82;55.35;;
77133;Laerm;26708;50.304;19.028;2024-03-23T04:55:41;55.70;50.86;70.64;;
77133;Laerm;26708;50.304;19.028;2024-03-23T04:57:43;56.25;51.07;68.94;;
77133;Laerm;26708;50.304;19.028;2024-03-23T04:59:46;55.11;51.14;66.17;;
77133;Laerm;26708;50.304;19.028;2024-03-23T05:01:48;53.54;50.56;58.89;;
77133;Laerm;26708;50.304;19.028;2024-03-23T05:03:51;57.89;50.88;78.19;;
77133;Laerm;26708;50.304;19.028;2024-03-23T05:05:54;53.22;50.70;59.77;;
77133;Laerm;26708;50.304;19.028;2024-03-23T05:07:58;53.35;50.75;57.33;;
77133;Laerm;26708;50.304;19.028;2024-03-23T05:10:00;56.48;50.19;69.91;;
77133;Laerm;26708;50.304;19.028;2024-03-23T05:12:03;55.53;50.81;67.44;;
77133;Laerm;26708;50.304;19.028;2024-03-23T05:14:05;56.72;51.02;69.96;;
77133;Laerm;26708;50.304;19.028;2024-03-23T05:16:07;57.06;50.94;71.94;;
77133;Laerm;26708;50.304;19.028;2024-03-23T05:18:09;53.48;50.27;58.32;;
77133;Laerm;26708;50.304;19.028;2024-03-23T05:20:11;56.40;50.88;71.11;;
77133;Laerm;26708;50.304;19.028;2024-03-23T05:22:13;53.55;50.74;61.15;;
77133;Laerm;26708;50.304;19.028;2024-03-23T05:24:19;54.56;51.07;66.54;;
77133;Laerm;26708;50.304;19.028;2024-03-23T05:26:21;55.19;50.68;68.78;;
77133;Laerm;26708;50.304;19.028;2024-03-23T05:28:23;55.59;51.11;67.01;;
77133;Laerm;26708;50.304;19.028;2024-03-23T05:30:26;53.39;50.95;59.29;;
77133;Laerm;26708;50.304;19.028;2024-03-23T05:32:28;53.55;50.79;62.00;;
77133;Laerm;26708;50.304;19.028;2024-03-23T05:34:29;56.44;50.89;67.47;;
77133;Laerm;26708;50.304;19.028;2024-03-23T05:36:32;57.25;51.19;67.57;;
77133;Laerm;26708;50.304;19.028;2024-03-23T05:38:34;55.11;50.80;65.29;;
77133;Laerm;26708;50.304;19.028;2024-03-23T05:40:39;54.58;50.62;63.36;;
77133;Laerm;26708;50.304;19.028;2024-03-23T05:42:42;54.83;51.02;65.99;;
77133;Laerm;26708;50.304;19.028;2024-03-23T05:44:44;55.43;50.09;66.53;;
77133;Laerm;26708;50.304;19.028;2024-03-23T05:46:46;56.10;51.03;67.42;;
77133;Laerm;26708;50.304;19.028;2024-03-23T05:48:50;60.38;51.10;76.97;;
77133;Laerm;26708;50.304;19.028;2024-03-23T05:51:01;54.87;51.13;67.14;;
77133;Laerm;26708;50.304;19.028;2024-03-23T05:53:04;55.72;50.83;65.78;;
77133;Laerm;26708;50.304;19.028;2024-03-23T05:55:08;57.18;50.51;68.46;;
77133;Laerm;26708;50.304;19.028;2024-03-23T05:57:12;56.79;50.94;68.24;;
77133;Laerm;26708;50.304;19.028;2024-03-23T05:59:14;53.64;50.86;62.74;;
77133;Laerm;26708;50.304;19.028;2024-03-23T06:01:17;57.59;50.72;68.03;;
77133;Laerm;26708;50.304;19.028;2024-03-23T06:03:19;56.67;51.95;65.50;;
77133;Laerm;26708;50.304;19.028;2024-03-23T06:05:21;56.64;51.32;70.00;;
77133;Laerm;26708;50.304;19.028;2024-03-23T06:07:23;57.45;51.31;70.37;;
77133;Laerm;26708;50.304;19.028;2024-03-23T06:09:25;57.15;51.21;66.91;;
77133;Laerm;26708;50.304;19.028;2024-03-23T06:11:27;56.25;51.24;69.89;;
77133;Laerm;26708;50.304;19.028;2024-03-23T06:13:32;57.90;51.34;70.71;;
77133;Laerm;26708;50.304;19.028;2024-03-23T06:15:34;57.51;51.06;69.18;;
77133;Laerm;26708;50.304;19.028;2024-03-23T06:17:36;54.03;50.98;63.74;;
77133;Laerm;26708;50.304;19.028;2024-03-23T06:19:39;55.96;50.48;66.86;;
77133;Laerm;26708;50.304;19.028;2024-03-23T06:21:43;53.61;50.95;68.33;;
77133;Laerm;26708;50.304;19.028;2024-03-23T06:23:46;57.73;51.28;68.79;;
77133;Laerm;26708;50.304;19.028;2024-03-23T06:25:49;59.08;50.90;71.32;;
77133;Laerm;26708;50.304;19.028;2024-03-23T06:27:51;56.11;50.81;66.37;;
77133;Laerm;26708;50.304;19.028;2024-03-23T06:29:56;55.19;51.14;70.68;;
77133;Laerm;26708;50.304;19.028;2024-03-23T06:31:58;57.62;51.44;68.48;;
77133;Laerm;26708;50.304;19.028;2024-03-23T06:34:00;56.97;50.75;67.92;;
77133;Laerm;26708;50.304;19.028;2024-03-23T06:36:04;55.96;52.25;67.80;;
77133;Laerm;26708;50.304;19.028;2024-03-23T06:38:07;57.56;51.56;67.03;;
77133;Laerm;26708;50.304;19.028;2024-03-23T06:40:09;56.40;50.84;68.19;;
77133;Laerm;26708;50.304;19.028;2024-03-23T06:42:11;57.79;51.46;67.97;;
77133;Laerm;26708;50.304;19.028;2024-03-23T06:44:14;54.45;50.75;63.47;;
77133;Laerm;26708;50.304;19.028;2024-03-23T06:46:18;56.65;50.80;70.13;;
77133;Laerm;26708;50.304;19.028;2024-03-23T06:48:20;58.65;50.94;69.30;;
77133;Laerm;26708;50.304;19.028;2024-03-23T06:50:23;56.95;50.86;66.40;;
77133;Laerm;26708;50.304;19.028;2024-03-23T06:52:25;56.09;50.50;69.18;;
77133;Laerm;26708;50.304;19.028;2024-03-23T06:54:27;56.83;51.17;67.13;;
77133;Laerm;26708;50.304;19.028;2024-03-23T06:56:29;54.76;51.07;65.14;;
77133;Laerm;26708;50.304;19.028;2024-03-23T06:58:31;57.50;51.28;71.40;;
77133;Laerm;26708;50.304;19.028;2024-03-23T07:00:34;57.83;51.53;67.98;;
77133;Laerm;26708;50.304;19.028;2024-03-23T07:02:39;55.66;51.11;68.55;;
77133;Laerm;26708;50.304;19.028;2024-03-23T07:04:41;54.79;50.99;64.40;;
77133;Laerm;26708;50.304;19.028;2024-03-23T07:06:43;56.49;51.42;71.46;;
77133;Laerm;26708;50.304;19.028;2024-03-23T07:08:46;56.40;50.89;66.88;;
77133;Laerm;26708;50.304;19.028;2024-03-23T07:10:48;56.36;51.05;68.15;;
77133;Laerm;26708;50.304;19.028;2024-03-23T07:12:50;56.39;50.78;70.12;;
77133;Laerm;26708;50.304;19.028;2024-03-23T07:14:53;57.46;50.98;69.84;;
77133;Laerm;26708;50.304;19.028;2024-03-23T07:16:54;56.98;50.94;67.08;;
77133;Laerm;26708;50.304;19.028;2024-03-23T07:18:59;58.21;51.46;70.21;;
77133;Laerm;26708;50.304;19.028;2024-03-23T07:21:02;56.92;50.85;66.61;;
77133;Laerm;26708;50.304;19.028;2024-03-23T07:23:04;58.31;51.48;73.09;;
77133;Laerm;26708;50.304;19.028;2024-03-23T07:25:07;55.34;51.44;69.95;;
77133;Laerm;26708;50.304;19.028;2024-03-23T07:27:09;56.61;51.07;66.53;;
77133;Laerm;26708;50.304;19.028;2024-03-23T07:29:11;53.72;51.10;59.13;;
77133;Laerm;26708;50.304;19.028;2024-03-23T07:31:14;57.12;51.17;68.14;;
77133;Laerm;26708;50.304;19.028;2024-03-23T07:33:16;55.29;51.75;62.40;;
77133;Laerm;26708;50.304;19.028;2024-03-23T07:35:21;57.94;51.49;70.09;;
77133;Laerm;26708;50.304;19.028;2024-03-23T07:37:23;56.14;50.94;66.35;;
77133;Laerm;26708;50.304;19.028;2024-03-23T07:39:25;56.64;50.96;69.00;;
77133;Laerm;26708;50.304;19.028;2024-03-23T07:41:28;55.02;50.78;67.82;;
77133;Laerm;26708;50.304;19.028;2024-03-23T07:43:30;58.03;51.11;70.04;;
77133;Laerm;26708;50.304;19.028;2024-03-23T07:45:33;54.62;51.23;65.74;;
77133;Laerm;26708;50.304;19.028;2024-03-23T07:47:35;57.86;51.22;69.87;;
77133;Laerm;26708;50.304;19.028;2024-03-23T07:49:38;55.84;51.60;71.19;;
77133;Laerm;26708;50.304;19.028;2024-03-23T07:51:43;55.21;50.90;63.65;;
77133;Laerm;26708;50.304;19.028;2024-03-23T07:53:46;57.28;51.27;69.88;;
77133;Laerm;26708;50.304;19.028;2024-03-23T07:55:54;58.73;51.42;69.99;;
77133;Laerm;26708;50.304;19.028;2024-03-23T07:57:57;55.31;51.61;66.26;;
77133;Laerm;26708;50.304;19.028;2024-03-23T07:59:59;58.70;51.80;68.75;;
77133;Laerm;26708;50.304;19.028;2024-03-23T08:02:01;54.84;51.74;64.36;;
77133;Laerm;26708;50.304;19.028;2024-03-23T08:04:04;55.67;51.25;64.99;;
77133;Laerm;26708;50.304;19.028;2024-03-23T08:06:10;56.53;51.80;65.70;;
77133;Laerm;26708;50.304;19.028;2024-03-23T08:08:15;59.69;51.63;71.76;;
77133;Laerm;26708;50.304;19.028;2024-03-23T08:10:18;58.19;51.78;68.33;;
77133;Laerm;26708;50.304;19.028;2024-03-23T08:12:19;55.70;51.24;67.88;;
77133;Laerm;26708;50.304;19.028;2024-03-23T08:14:21;57.83;51.48;71.52;;
77133;Laerm;26708;50.304;19.028;2024-03-23T08:16:24;57.95;51.59;66.29;;
77133;Laerm;26708;50.304;19.028;2024-03-23T08:18:26;57.02;50.76;72.00;;
77133;Laerm;26708;50.304;19.028;2024-03-23T08:20:28;54.96;51.38;67.76;;
77133;Laerm;26708;50.304;19.028;2024-03-23T08:22:31;58.28;51.08;71.17;;
77133;Laerm;26708;50.304;19.028;2024-03-23T08:24:37;56.47;51.46;69.97;;
77133;Laerm;26708;50.304;19.028;2024-03-23T08:26:39;56.70;50.98;67.42;;
77133;Laerm;26708;50.304;19.028;2024-03-23T08:28:42;56.69;51.44;68.29;;
77133;Laerm;26708;50.304;19.028;2024-03-23T08:30:44;58.19;51.99;71.42;;
77133;Laerm;26708;50.304;19.028;2024-03-23T08:32:46;59.10;51.46;70.02;;
77133;Laerm;26708;50.304;19.028;2024-03-23T08:34:49;58.55;51.48;80.29;;
77133;Laerm;26708;50.304;19.028;2024-03-23T08:36:50;59.01;51.55;68.93;;
77133;Laerm;26708;50.304;19.028;2024-03-23T08:38:52;58.23;51.49;74.24;;
77133;Laerm;26708;50.304;19.028;2024-03-23T08:41:03;56.00;51.35;65.50;;
77133;Laerm;26708;50.304;19.028;2024-03-23T08:43:05;58.60;50.70;76.97;;
77133;Laerm;26708;50.304;19.028;2024-03-23T08:45:08;57.27;51.49;66.95;;
77133;Laerm;26708;50.304;19.028;2024-03-23T08:47:10;57.46;51.78;69.52;;
77133;Laerm;26708;50.304;19.028;2024-03-23T08:49:12;57.45;51.31;67.66;;
77133;Laerm;26708;50.304;19.028;2024-03-23T08:51:15;57.20;51.57;67.80;;
77133;Laerm;26708;50.304;19.028;2024-03-23T08:53:18;60.48;51.72;72.32;;
77133;Laerm;26708;50.304;19.028;2024-03-23T08:55:20;56.95;51.21;66.91;;
77133;Laerm;26708;50.304;19.028;2024-03-23T08:57:25;58.71;51.40;69.53;;
77133;Laerm;26708;50.304;19.028;2024-03-23T08:59:27;58.64;51.90;70.59;;
77133;Laerm;26708;50.304;19.028;2024-03-23T09:01:29;57.61;52.00;68.00;;
77133;Laerm;26708;50.304;19.028;2024-03-23T09:03:31;57.41;50.94;71.39;;
77133;Laerm;26708;50.304;19.028;2024-03-23T09:05:39;57.99;51.40;72.78;;
77133;Laerm;26708;50.304;19.028;2024-03-23T09:07:41;58.04;51.61;67.77;;
77133;Laerm;26708;50.304;19.028;2024-03-23T09:09:43;57.03;51.41;66.17;;
77133;Laerm;26708;50.304;19.028;2024-03-23T09:11:46;57.44;51.63;68.54;;
77133;Laerm;26708;50.304;19.028;2024-03-23T09:13:50;57.24;51.49;71.81;;
77133;Laerm;26708;50.304;19.028;2024-03-23T09:15:52;57.31;51.14;71.49;;
77133;Laerm;26708;50.304;19.028;2024-03-23T09:17:56;56.93;51.65;68.84;;
77133;Laerm;26708;50.304;19.028;2024-03-23T09:19:58;59.06;51.63;68.75;;
77133;Laerm;26708;50.304;19.028;2024-03-23T09:22:00;58.06;51.73;68.81;;
77133;Laerm;26708;50.304;19.028;2024-03-23T09:24:02;56.78;51.44;66.58;;
77133;Laerm;26708;50.304;19.028;2024-03-23T09:26:05;57.34;51.44;67.85;;
77133;Laerm;26708;50.304;19.028;2024-03-23T09:28:08;56.29;51.51;64.67;;
77133;Laerm;26708;50.304;19.028;2024-03-23T09:30:15;58.24;51.60;70.65;;
77133;Laerm;26708;50.304;19.028;2024-03-23T09:32:17;56.87;51.46;69.88;;
77133;Laerm;26708;50.304;19.028;2024-03-23T09:34:20;56.31;51.50;66.04;;
77133;Laerm;26708;50.304;19.028;2024-03-23T09:36:23;58.09;51.24;70.82;;
77133;Laerm;26708;50.304;19.028;2024-03-23T09:38:24;57.52;51.23;69.49;;
77133;Laerm;26708;50.304;19.028;2024-03-23T09:40:27;58.38;51.60;74.29;;
77133;Laerm;26708;50.304;19.028;2024-03-23T09:42:30;57.93;51.49;71.43;;
77133;Laerm;26708;50.304;19.028;2024-03-23T09:44:32;57.65;51.18;70.01;;
77133;Laerm;26708;50.304;19.028;2024-03-23T09:46:38;56.25;51.26;67.84;;
77133;Laerm;26708;50.304;19.028;2024-03-23T09:48:43;58.93;51.08;71.36;;
77133;Laerm;26708;50.304;19.028;2024-03-23T09:50:48;56.91;51.25;67.78;;
77133;Laerm;26708;50.304;19.028;2024-03-23T09:52:50;57.69;51.63;72.00;;
77133;Laerm;26708;50.304;19.028;2024-03-23T09:54:53;57.73;51.20;67.05;;
77133;Laerm;26708;50.304;19.028;2024-03-23T09:56:55;57.57;51.47;69.14;;
77133;Laerm;26708;50.304;19.028;2024-03-23T09:59:03;64.73;51.35;87.42;;
77133;Laerm;26708;50.304;19.028;2024-03-23T10:01:07;57.33;51.35;67.79;;
77133;Laerm;26708;50.304;19.028;2024-03-23T10:03:12;58.90;51.67;70.30;;
77133;Laerm;26708;50.304;19.028;2024-03-23T10:05:22;56.06;51.12;70.64;;
77133;Laerm;26708;50.304;19.028;2024-03-23T10:07:26;58.22;51.62;68.86;;
77133;Laerm;26708;50.304;19.028;2024-03-23T10:09:29;59.13;50.92;71.06;;
77133;Laerm;26708;50.304;19.028;2024-03-23T10:11:31;57.30;51.20;71.53;;
77133;Laerm;26708;50.304;19.028;2024-03-23T10:13:34;57.00;51.70;66.67;;
77133;Laerm;26708;50.304;19.028;2024-03-23T10:15:37;59.83;51.62;75.21;;
77133;Laerm;26708;50.304;19.028;2024-03-23T10:17:39;58.43;51.68;72.22;;
77133;Laerm;26708;50.304;19.028;2024-03-23T10:19:45;55.82;51.32;70.27;;
77133;Laerm;26708;50.304;19.028;2024-03-23T10:21:52;58.10;51.15;70.31;;
77133;Laerm;26708;50.304;19.028;2024-03-23T10:23:54;58.54;51.26;70.43;;
77133;Laerm;26708;50.304;19.028;2024-03-23T10:26:13;57.76;50.67;69.30;;
77133;Laerm;26708;50.304;19.028;2024-03-23T10:28:15;56.91;50.60;69.24;;
77133;Laerm;26708;50.304;19.028;2024-03-23T10:30:17;56.53;51.24;65.88;;
77133;Laerm;26708;50.304;19.028;2024-03-23T10:32:20;58.31;50.73;70.58;;
77133;Laerm;26708;50.304;19.028;2024-03-23T10:34:25;57.55;50.84;68.57;;
77133;Laerm;26708;50.304;19.028;2024-03-23T10:36:30;54.36;50.89;64.39;;
77133;Laerm;26708;50.304;19.028;2024-03-23T10:38:34;58.95;51.44;72.83;;
77133;Laerm;26708;50.304;19.028;2024-03-23T10:40:37;56.29;50.89;68.95;;
77133;Laerm;26708;50.304;19.028;2024-03-23T10:42:40;60.42;50.90;75.47;;
77133;Laerm;26708;50.304;19.028;2024-03-23T10:44:42;58.16;51.57;72.04;;
77133;Laerm;26708;50.304;19.028;2024-03-23T10:46:44;57.41;51.15;67.43;;
77133;Laerm;26708;50.304;19.028;2024-03-23T10:48:46;58.79;51.37;68.35;;
77133;Laerm;26708;50.304;19.028;2024-03-23T10:50:49;56.70;50.98;66.65;;
77133;Laerm;26708;50.304;19.028;2024-03-23T10:52:54;59.93;51.43;73.57;;
77133;Laerm;26708;50.304;19.028;2024-03-23T10:55:02;56.96;51.35;78.39;;
77133;Laerm;26708;50.304;19.028;2024-03-23T10:57:14;59.07;51.65;70.89;;
77133;Laerm;26708;50.304;19.028;2024-03-23T10:59:18;57.14;51.39;72.08;;
77133;Laerm;26708;50.304;19.028;2024-03-23T11:01:20;60.13;51.75;72.83;;
77133;Laerm;26708;50.304;19.028;2024-03-23T11:03:35;58.41;51.63;70.07;;
77133;Laerm;26708;50.304;19.028;2024-03-23T11:05:37;60.42;51.98;72.16;;
77133;Laerm;26708;50.304;19.028;2024-03-23T11:07:49;59.54;51.26;75.65;;
77133;Laerm;26708;50.304;19.028;2024-03-23T11:09:56;57.58;50.80;67.48;;
77133;Laerm;26708;50.304;19.028;2024-03-23T11:12:02;57.25;50.32;68.30;;
77133;Laerm;26708;50.304;19.028;2024-03-23T11:14:22;58.12;50.50;69.92;;
77133;Laerm;26708;50.304;19.028;2024-03-23T11:16:28;57.86;51.17;68.91;;
77133;Laerm;26708;50.304;19.028;2024-03-23T11:18:31;58.74;50.71;75.94;;
77133;Laerm;26708;50.304;19.028;2024-03-23T11:20:33;55.75;50.51;66.80;;
77133;Laerm;26708;50.304;19.028;2024-03-23T11:22:44;57.41;51.26;68.70;;
77133;Laerm;26708;50.304;19.028;2024-03-23T11:24:50;60.29;50.48;79.31;;
77133;Laerm;26708;50.304;19.028;2024-03-23T11:26:55;56.68;51.16;68.63;;
77133;Laerm;26708;50.304;19.028;2024-03-23T11:29:09;57.84;51.00;68.45;;
77133;Laerm;26708;50.304;19.028;2024-03-23T11:31:11;56.49;51.10;66.90;;
77133;Laerm;26708;50.304;19.028;2024-03-23T11:33:13;56.96;50.95;70.21;;
77133;Laerm;26708;50.304;19.028;2024-03-23T11:35:27;58.34;50.91;70.42;;
77133;Laerm;26708;50.304;19.028;2024-03-23T11:37:29;60.91;50.71;81.11;;
77133;Laerm;26708;50.304;19.028;2024-03-23T11:39:31;56.72;50.88;67.64;;
77133;Laerm;26708;50.304;19.028;2024-03-23T11:41:35;55.48;50.93;69.97;;
77133;Laerm;26708;50.304;19.028;2024-03-23T11:43:39;55.38;50.58;65.17;;
77133;Laerm;26708;50.304;19.028;2024-03-23T11:45:44;57.89;50.87;71.00;;
77133;Laerm;26708;50.304;19.028;2024-03-23T11:47:47;58.40;51.41;71.00;;
77133;Laerm;26708;50.304;19.028;2024-03-23T11:49:49;56.84;50.50;67.76;;
77133;Laerm;26708;50.304;19.028;2024-03-23T11:51:53;57.46;50.45;70.51;;
77133;Laerm;26708;50.304;19.028;2024-03-23T11:54:08;56.00;50.79;68.09;;
77133;Laerm;26708;50.304;19.028;2024-03-23T11:56:09;56.90;50.36;67.50;;
77133;Laerm;26708;50.304;19.028;2024-03-23T11:58:12;58.93;51.59;74.60;;
77133;Laerm;26708;50.304;19.028;2024-03-23T12:00:25;56.67;50.54;68.61;;
77133;Laerm;26708;50.304;19.028;2024-03-23T12:02:27;56.31;51.06;69.32;;
77133;Laerm;26708;50.304;19.028;2024-03-23T12:04:29;58.31;50.86;70.58;;
77133;Laerm;26708;50.304;19.028;2024-03-23T12:06:32;56.81;51.24;70.24;;
77133;Laerm;26708;50.304;19.028;2024-03-23T12:08:35;57.25;51.18;67.84;;
77133;Laerm;26708;50.304;19.028;2024-03-23T12:10:37;56.96;51.38;68.41;;
77133;Laerm;26708;50.304;19.028;2024-03-23T12:12:39;58.20;50.85;67.78;;